Time;durP1;ratioP1;P1;durP2;ratioP2;P2;SDS_P1;SDS_P2;PMS_P1;PMS_P2;Temp;Humidity;BMP_temperature;BMP_pressure;BME280_temperature;BME280_humidity;BME280_pressure;Samples;Min_cycle;Max_cycle;Signal;HPM_P1;HPM_P2
2022/07/27 00:00:42;;;;;;;0.20;0.20;;;22.90;58.80;;;;;;4938182;28;20039;-34
2022/07/27 00:03:08;;;;;;;0.20;0.20;;;23.00;58.90;;;;;;4941264;28;20043;-34
2022/07/27 00:05:33;;;;;;;0.43;0.20;;;22.90;58.80;;;;;;4937786;28;20420;-27
2022/07/27 00:07:59;;;;;;;0.13;0.13;;;22.90;59.10;;;;;;4940215;28;20075;-35
2022/07/27 00:10:24;;;;;;;0.20;0.20;;;22.90;59.00;;;;;;4942748;28;20044;-45
2022/07/27 00:12:50;;;;;;;0.20;0.20;;;22.90;58.90;;;;;;4939668;28;20054;-44
2022/07/27 00:15:16;;;;;;;0.17;0.17;;;22.90;59.10;;;;;;4944564;28;20450;-44
2022/07/27 00:17:42;;;;;;;0.10;0.10;;;22.90;59.00;;;;;;4941176;28;20043;-45
2022/07/27 00:20:08;;;;;;;0.17;0.10;;;22.90;59.00;;;;;;4942846;28;20509;-45
2022/07/27 00:22:33;;;;;;;0.17;0.13;;;22.90;59.00;;;;;;4938169;28;20114;-45
2022/07/27 00:24:59;;;;;;;0.10;0.10;;;22.90;58.80;;;;;;4940109;28;20126;-44
2022/07/27 00:27:24;;;;;;;0.15;0.15;;;22.90;59.00;;;;;;4942743;28;20105;-45
2022/07/27 00:29:50;;;;;;;0.17;0.10;;;22.90;58.90;;;;;;4941679;28;20477;-44
2022/07/27 00:32:16;;;;;;;0.20;0.20;;;22.90;58.60;;;;;;4939742;28;20031;-45
2022/07/27 00:34:41;;;;;;;0.30;0.20;;;22.90;58.80;;;;;;4938595;28;20044;-43
2022/07/27 00:37:07;;;;;;;0.28;0.10;;;22.90;58.70;;;;;;4941170;28;20047;-44
2022/07/27 00:39:32;;;;;;;0.20;0.20;;;22.90;58.80;;;;;;4941818;28;20449;-44
2022/07/27 00:41:58;;;;;;;0.47;0.20;;;22.80;58.90;;;;;;4939431;28;20082;-47
2022/07/27 00:44:27;;;;;;;0.28;0.20;;;22.80;58.80;;;;;;4940553;28;20506;-44
2022/07/27 00:46:53;;;;;;;0.77;0.20;;;22.80;59.00;;;;;;4935100;28;20548;-44
2022/07/27 00:49:19;;;;;;;0.20;0.10;;;22.80;58.90;;;;;;4937530;28;20077;-45
2022/07/27 00:51:44;;;;;;;0.25;0.25;;;22.80;58.70;;;;;;4938479;28;20132;-44
2022/07/27 00:54:10;;;;;;;0.28;0.28;;;22.80;58.70;;;;;;4941168;28;20052;-44
2022/07/27 00:56:36;;;;;;;0.60;0.20;;;22.80;59.00;;;;;;4943636;28;20605;-44
2022/07/27 00:59:01;;;;;;;0.10;0.10;;;22.80;59.70;;;;;;4939474;28;20055;-45
2022/07/27 01:01:27;;;;;;;0.30;0.15;;;22.80;58.90;;;;;;4939673;28;20040;-44
2022/07/27 01:03:52;;;;;;;0.38;0.20;;;22.80;58.70;;;;;;4938525;28;20050;-45
2022/07/27 01:06:18;;;;;;;0.20;0.10;;;22.80;59.00;;;;;;4942403;28;20098;-47
2022/07/27 01:08:43;;;;;;;0.50;0.22;;;22.80;58.70;;;;;;4941613;28;20414;-43
2022/07/27 01:11:09;;;;;;;0.30;0.20;;;22.80;59.10;;;;;;4940570;28;20126;-45
2022/07/27 01:13:35;;;;;;;0.43;0.22;;;22.80;58.80;;;;;;4942446;28;20540;-44
2022/07/27 01:16:03;;;;;;;0.30;0.13;;;22.80;59.00;;;;;;4955417;28;20039;-45
2022/07/27 01:18:33;;;;;;;0.20;0.13;;;22.80;58.90;;;;;;4937630;28;20051;-44
2022/07/27 01:21:01;;;;;;;0.20;0.20;;;22.70;58.80;;;;;;4939812;28;20079;-45
2022/07/27 01:23:26;;;;;;;0.68;0.10;;;22.70;59.20;;;;;;4943882;28;20043;-44
2022/07/27 01:25:53;;;;;;;0.32;0.20;;;22.70;59.10;;;;;;4936101;28;20040;-45
2022/07/27 01:28:19;;;;;;;0.30;0.20;;;22.70;58.90;;;;;;4941400;28;20047;-46
2022/07/27 01:30:44;;;;;;;0.20;0.17;;;22.80;59.70;;;;;;4937520;28;20567;-44
2022/07/27 01:33:10;;;;;;;0.57;0.40;;;22.80;58.90;;;;;;4940390;28;20477;-45
2022/07/27 01:35:37;;;;;;;0.30;0.20;;;22.70;59.10;;;;;;4940612;28;20050;-47
2022/07/27 01:38:02;;;;;;;0.20;0.20;;;22.70;58.90;;;;;;4936193;28;20044;-45
2022/07/27 01:40:28;;;;;;;0.43;0.15;;;22.70;58.90;;;;;;4938155;28;20407;-44
2022/07/27 01:42:53;;;;;;;0.20;0.20;;;22.70;59.10;;;;;;4939852;28;20038;-44
2022/07/27 01:45:20;;;;;;;0.73;0.25;;;22.70;59.10;;;;;;4936841;28;20179;-51
2022/07/27 01:47:46;;;;;;;0.10;0.10;;;22.70;59.20;;;;;;4939269;28;20042;-43
2022/07/27 01:50:11;;;;;;;0.20;0.20;;;22.70;59.00;;;;;;4939399;28;20051;-45
2022/07/27 01:52:38;;;;;;;0.10;0.10;;;22.70;59.10;;;;;;4940496;28;20438;-45
2022/07/27 01:55:07;;;;;;;0.20;0.20;;;22.70;58.90;;;;;;4939588;28;20050;-43
2022/07/27 01:57:33;;;;;;;0.28;0.20;;;22.70;59.00;;;;;;4941011;28;20053;-45
2022/07/27 01:59:59;;;;;;;0.10;0.10;;;22.70;59.10;;;;;;4936715;28;20138;-45
2022/07/27 02:02:24;;;;;;;0.32;0.15;;;22.70;59.00;;;;;;4939459;28;20059;-45
2022/07/27 02:04:50;;;;;;;0.20;0.10;;;22.70;59.00;;;;;;4939075;28;20510;-44
2022/07/27 02:07:15;;;;;;;0.30;0.20;;;22.70;58.90;;;;;;4941773;28;20075;-44
2022/07/27 02:09:41;;;;;;;0.20;0.20;;;22.70;59.30;;;;;;4940819;28;20077;-19
2022/07/27 02:14:51;;;;;;;0.20;0.20;;;22.70;58.90;;;;;;4938044;28;20054;-20
2022/07/27 02:17:16;;;;;;;0.15;0.13;;;22.60;58.80;;;;;;4936542;28;20056;-19
2022/07/27 02:19:42;;;;;;;0.47;0.30;;;22.70;58.90;;;;;;4936587;28;20518;-20
2022/07/27 02:22:09;;;;;;;0.20;0.15;;;22.70;58.80;;;;;;4939751;28;20055;-20
2022/07/27 02:24:36;;;;;;;0.30;0.20;;;22.60;58.80;;;;;;4939047;28;20391;-20
2022/07/27 02:27:02;;;;;;;0.30;0.22;;;22.60;59.00;;;;;;4937387;28;20051;-23
2022/07/27 02:29:29;;;;;;;0.32;0.17;;;22.60;59.10;;;;;;4940103;28;20070;-20
2022/07/27 02:31:55;;;;;;;0.30;0.30;;;22.60;59.30;;;;;;4938501;28;20050;-20
2022/07/27 02:34:20;;;;;;;0.15;0.15;;;22.60;59.00;;;;;;4939999;28;20134;-20
2022/07/27 02:36:46;;;;;;;0.20;0.20;;;22.70;58.90;;;;;;4940288;28;20505;-19
2022/07/27 02:39:11;;;;;;;0.20;0.20;;;22.60;58.90;;;;;;4940622;28;20502;-19
2022/07/27 02:41:37;;;;;;;0.35;0.30;;;22.60;59.10;;;;;;4935857;28;20055;-20
2022/07/27 02:44:03;;;;;;;0.22;0.20;;;22.60;58.80;;;;;;4936353;28;20046;-21
2022/07/27 02:46:28;;;;;;;1.95;0.25;;;22.60;58.80;;;;;;4938274;28;20475;-19
2022/07/27 02:48:54;;;;;;;0.20;0.20;;;22.60;58.80;;;;;;4940507;28;20039;-19
2022/07/27 02:51:19;;;;;;;0.43;0.20;;;22.60;59.20;;;;;;4938293;28;20047;-19
2022/07/27 02:53:45;;;;;;;0.45;0.30;;;22.60;59.00;;;;;;4942916;28;20055;-20
2022/07/27 02:56:10;;;;;;;0.20;0.20;;;22.60;58.70;;;;;;4938259;28;20142;-19
2022/07/27 02:58:36;;;;;;;0.22;0.20;;;22.60;58.70;;;;;;4942204;28;20549;-20
2022/07/27 03:01:02;;;;;;;0.45;0.20;;;22.60;58.80;;;;;;4940891;28;20049;-20
2022/07/27 03:03:28;;;;;;;0.25;0.25;;;22.60;59.00;;;;;;4939658;28;20047;-20
2022/07/27 03:05:54;;;;;;;0.13;0.10;;;22.60;59.00;;;;;;4939945;28;20040;-20
2022/07/27 03:08:19;;;;;;;0.52;0.30;;;22.60;59.10;;;;;;4942020;28;20047;-19
2022/07/27 03:10:45;;;;;;;0.50;0.30;;;22.60;59.10;;;;;;4942297;28;20043;-19
2022/07/27 03:13:10;;;;;;;0.38;0.20;;;22.60;59.00;;;;;;4945888;28;20043;-20
2022/07/27 03:15:36;;;;;;;0.20;0.20;;;22.60;59.20;;;;;;4943172;28;20402;-20
2022/07/27 03:18:02;;;;;;;0.10;0.10;;;22.60;58.90;;;;;;4942364;28;20053;-20
2022/07/27 03:20:27;;;;;;;0.20;0.20;;;22.50;59.00;;;;;;4941485;28;20448;-20
2022/07/27 03:22:53;;;;;;;0.35;0.20;;;22.50;59.20;;;;;;4943531;28;20046;-20
2022/07/27 03:25:19;;;;;;;0.10;0.10;;;22.50;58.80;;;;;;4946757;28;20082;-20
2022/07/27 03:27:44;;;;;;;0.20;0.20;;;22.50;58.80;;;;;;4938577;28;20059;-20
2022/07/27 03:30:10;;;;;;;0.32;0.20;;;22.50;58.90;;;;;;4938366;28;20113;-20
2022/07/27 03:32:36;;;;;;;0.98;0.60;;;22.50;58.70;;;;;;4944466;28;20565;-19
2022/07/27 03:35:01;;;;;;;0.40;0.30;;;22.50;58.80;;;;;;4937121;28;20100;-19
2022/07/27 03:37:27;;;;;;;0.57;0.20;;;22.50;58.70;;;;;;4946133;28;20367;-19
2022/07/27 03:39:52;;;;;;;0.28;0.20;;;22.50;59.10;;;;;;4942586;28;20513;-20
2022/07/27 03:42:18;;;;;;;0.20;0.20;;;22.50;58.80;;;;;;4941391;28;20050;-20
2022/07/27 03:44:43;;;;;;;0.30;0.22;;;22.50;58.80;;;;;;4941123;28;20058;-20
2022/07/27 03:47:09;;;;;;;0.20;0.20;;;22.50;59.40;;;;;;4937447;28;20106;-21
2022/07/27 03:49:34;;;;;;;1.35;0.20;;;22.50;58.80;;;;;;4936948;28;20520;-20
2022/07/27 03:52:00;;;;;;;0.20;0.20;;;22.40;58.80;;;;;;4941624;28;20453;-20
2022/07/27 03:54:26;;;;;;;0.30;0.30;;;22.40;58.90;;;;;;4942368;28;20130;-20
2022/07/27 03:56:52;;;;;;;0.17;0.17;;;22.40;58.80;;;;;;4940261;28;20055;-19
2022/07/27 03:59:17;;;;;;;0.35;0.30;;;22.40;58.70;;;;;;4939583;28;20050;-19
2022/07/27 04:01:43;;;;;;;0.30;0.20;;;22.40;58.90;;;;;;4942869;28;20052;-20
2022/07/27 04:04:08;;;;;;;0.43;0.20;;;22.40;59.40;;;;;;4937793;28;20051;-20
2022/07/27 04:06:34;;;;;;;0.30;0.30;;;22.40;58.90;;;;;;4941082;28;20507;-20
2022/07/27 04:08:59;;;;;;;0.50;0.30;;;22.40;58.70;;;;;;4940038;28;20044;-20
2022/07/27 04:11:25;;;;;;;0.20;0.20;;;22.40;59.00;;;;;;4943254;28;20055;-20
2022/07/27 04:13:50;;;;;;;0.30;0.30;;;22.40;59.00;;;;;;4938638;28;20067;-20
2022/07/27 04:16:16;;;;;;;0.30;0.20;;;22.40;58.80;;;;;;4937544;28;20059;-20
2022/07/27 04:18:42;;;;;;;0.40;0.30;;;22.40;58.60;;;;;;4944445;28;20047;-20
2022/07/27 04:21:07;;;;;;;0.30;0.30;;;22.40;58.70;;;;;;4941466;28;20143;-21
2022/07/27 04:23:33;;;;;;;0.20;0.20;;;22.40;58.70;;;;;;4940566;28;20513;-20
2022/07/27 04:25:59;;;;;;;0.20;0.20;;;22.40;58.90;;;;;;4939520;28;20049;-20
2022/07/27 04:28:24;;;;;;;0.47;0.22;;;22.30;58.70;;;;;;4939076;28;20044;-20
2022/07/27 04:30:50;;;;;;;0.25;0.20;;;22.30;58.80;;;;;;4941875;28;20453;-20
2022/07/27 04:33:16;;;;;;;0.40;0.30;;;22.30;58.80;;;;;;4942986;28;20110;-19
2022/07/27 04:35:41;;;;;;;0.35;0.25;;;22.30;58.80;;;;;;4937593;28;20044;-20
2022/07/27 04:38:07;;;;;;;0.30;0.30;;;22.30;58.70;;;;;;4934516;28;20043;-20
2022/07/27 04:40:32;;;;;;;0.13;0.13;;;22.30;58.60;;;;;;4939463;28;20098;-20
2022/07/27 04:42:59;;;;;;;0.30;0.25;;;22.30;58.70;;;;;;4943003;28;20498;-20
2022/07/27 04:45:24;;;;;;;0.30;0.20;;;22.30;58.60;;;;;;4940435;28;20151;-19
2022/07/27 04:47:50;;;;;;;0.20;0.20;;;22.30;58.40;;;;;;4939329;28;20573;-20
2022/07/27 04:50:15;;;;;;;0.25;0.22;;;22.30;58.60;;;;;;4939708;28;20055;-20
2022/07/27 04:52:41;;;;;;;0.38;0.20;;;22.30;59.30;;;;;;4940855;28;20138;-22
2022/07/27 04:55:07;;;;;;;0.40;0.20;;;22.30;59.00;;;;;;4939803;28;20047;-20
2022/07/27 04:57:33;;;;;;;0.30;0.30;;;22.40;59.40;;;;;;4942095;28;20061;-21
2022/07/27 04:59:58;;;;;;;1.13;0.50;;;22.40;57.90;;;;;;4939756;28;20524;-20
2022/07/27 05:02:25;;;;;;;0.77;0.65;;;21.80;55.00;;;;;;4942963;28;20096;-19
2022/07/27 05:04:51;;;;;;;1.13;0.60;;;21.30;54.90;;;;;;4591662;28;9999665;-20
2022/07/27 05:07:17;;;;;;;1.95;0.50;;;20.90;55.50;;;;;;4941814;28;20567;-20
2022/07/27 05:09:42;;;;;;;0.85;0.50;;;20.70;55.80;;;;;;4934359;28;20505;-19
2022/07/27 05:12:08;;;;;;;1.38;0.70;;;20.50;56.40;;;;;;4937434;28;20089;-20
2022/07/27 05:14:34;;;;;;;1.58;0.70;;;20.50;56.40;;;;;;4941190;28;20039;-19
2022/07/27 05:17:00;;;;;;;2.60;0.73;;;20.30;56.60;;;;;;4930414;28;20042;-20
2022/07/27 05:19:26;;;;;;;0.52;0.47;;;20.10;57.20;;;;;;4936035;28;20062;-19
2022/07/27 05:21:51;;;;;;;0.80;0.63;;;20.00;57.70;;;;;;4933031;28;20079;-19
2022/07/27 05:24:17;;;;;;;1.38;0.50;;;19.90;57.80;;;;;;4935678;28;20054;-19
2022/07/27 05:26:42;;;;;;;0.60;0.50;;;19.80;58.20;;;;;;4939492;28;20554;-20
2022/07/27 05:29:08;;;;;;;1.60;0.60;;;19.70;58.20;;;;;;4936185;28;20561;-20
2022/07/27 05:31:33;;;;;;;1.65;0.93;;;19.70;58.40;;;;;;4940006;28;20047;-20
2022/07/27 05:33:59;;;;;;;1.25;0.90;;;19.60;58.50;;;;;;4937226;28;20055;-19
2022/07/27 05:36:25;;;;;;;0.40;0.40;;;19.60;58.70;;;;;;4936131;28;20741;-19
2022/07/27 05:38:51;;;;;;;1.08;0.60;;;19.50;59.00;;;;;;4936296;28;20051;-20
2022/07/27 05:41:21;;;;;;;2.15;0.88;;;19.50;58.80;;;;;;4937162;28;20044;-19
2022/07/27 05:43:47;;;;;;;2.13;0.68;;;19.50;58.80;;;;;;4938195;28;20141;-19
2022/07/27 05:46:12;;;;;;;2.10;0.65;;;19.50;59.20;;;;;;4939578;28;20054;-19
2022/07/27 05:48:38;;;;;;;1.23;0.80;;;19.40;59.40;;;;;;4937018;28;20078;-19
2022/07/27 05:51:04;;;;;;;1.77;0.80;;;19.40;59.60;;;;;;4939712;28;20300;-19
2022/07/27 05:53:29;;;;;;;0.68;0.50;;;19.40;59.80;;;;;;4932317;28;20089;-19
2022/07/27 05:55:55;;;;;;;1.85;0.80;;;19.40;60.20;;;;;;4933089;28;20052;-20
2022/07/27 05:58:20;;;;;;;2.03;1.52;;;19.30;60.90;;;;;;4934883;28;20066;-19
2022/07/27 06:00:46;;;;;;;1.17;0.80;;;19.30;61.90;;;;;;4938298;28;20039;-19
2022/07/27 06:03:11;;;;;;;0.65;0.63;;;19.20;61.60;;;;;;4937053;28;20145;-19
2022/07/27 06:05:37;;;;;;;1.23;0.90;;;19.20;62.80;;;;;;4934210;28;20192;-20
2022/07/27 06:08:07;;;;;;;2.10;0.70;;;19.20;63.40;;;;;;4931234;28;20054;-20
2022/07/27 06:10:33;;;;;;;0.70;0.45;;;19.40;63.20;;;;;;4935603;28;20055;-19
2022/07/27 06:13:00;;;;;;;0.50;0.50;;;19.60;62.50;;;;;;4939634;28;20067;-19
2022/07/27 06:15:26;;;;;;;3.75;0.40;;;19.70;61.90;;;;;;4935220;28;20552;-20
2022/07/27 06:17:52;;;;;;;2.08;0.47;;;19.80;61.50;;;;;;4939733;28;20130;-19
2022/07/27 06:20:19;;;;;;;1.85;0.40;;;19.90;61.10;;;;;;4935656;28;20055;-20
2022/07/27 06:22:58;;;;;;;0.60;0.40;;;20.00;60.90;;;;;;4933046;28;20130;-19
2022/07/27 06:25:24;;;;;;;1.45;0.50;;;20.00;60.60;;;;;;4935634;28;20072;-19
2022/07/27 06:27:50;;;;;;;0.40;0.40;;;20.10;60.30;;;;;;4935698;28;20032;-19
2022/07/27 06:30:16;;;;;;;0.40;0.40;;;20.10;60.20;;;;;;4938148;28;20055;-20
2022/07/27 06:32:42;;;;;;;0.65;0.40;;;20.30;60.10;;;;;;4940146;28;20046;-19
2022/07/27 06:35:08;;;;;;;0.60;0.45;;;20.30;60.50;;;;;;4935613;28;20044;-20
2022/07/27 06:37:34;;;;;;;0.65;0.57;;;20.30;59.70;;;;;;4939880;28;20078;-19
2022/07/27 06:40:00;;;;;;;0.63;0.47;;;20.30;59.60;;;;;;4944471;28;20122;-20
2022/07/27 06:42:26;;;;;;;0.93;0.52;;;20.40;59.60;;;;;;4946002;28;20130;-20
2022/07/27 06:44:52;;;;;;;1.58;0.30;;;20.40;59.50;;;;;;4943038;28;20048;-20
2022/07/27 06:47:18;;;;;;;0.68;0.38;;;20.50;59.50;;;;;;4939744;28;20059;-19
2022/07/27 06:49:43;;;;;;;0.60;0.60;;;20.50;59.50;;;;;;4944902;28;20126;-20
2022/07/27 06:52:09;;;;;;;1.10;0.40;;;20.50;59.40;;;;;;4942572;28;20059;-20
2022/07/27 06:54:34;;;;;;;0.90;0.30;;;20.50;59.40;;;;;;4947481;28;20031;-20
2022/07/27 06:57:00;;;;;;;1.75;0.50;;;20.60;59.50;;;;;;4940017;28;20043;-20
2022/07/27 06:59:25;;;;;;;0.95;0.50;;;20.60;59.30;;;;;;4941324;28;20529;-20
2022/07/27 07:01:51;;;;;;;0.70;0.40;;;20.60;59.30;;;;;;4941954;28;20123;-20
2022/07/27 07:04:17;;;;;;;0.85;0.30;;;20.60;59.20;;;;;;4945024;28;20047;-20
2022/07/27 07:06:43;;;;;;;0.45;0.45;;;20.70;59.30;;;;;;4940928;28;20048;-20
2022/07/27 07:09:09;;;;;;;0.30;0.30;;;20.70;59.30;;;;;;4941315;28;20481;-20
2022/07/27 07:11:34;;;;;;;0.95;0.40;;;20.70;59.30;;;;;;4943547;28;20086;-30
2022/07/27 07:14:00;;;;;;;0.40;0.40;;;20.70;59.10;;;;;;4943266;28;20085;-20
2022/07/27 07:16:26;;;;;;;0.30;0.30;;;20.80;59.20;;;;;;4939362;28;20051;-20
2022/07/27 07:18:51;;;;;;;0.30;0.30;;;20.80;59.20;;;;;;4943972;28;20394;-19
2022/07/27 07:21:17;;;;;;;0.55;0.35;;;20.80;59.20;;;;;;4945113;28;20051;-21
2022/07/27 07:23:42;;;;;;;0.65;0.52;;;20.80;59.20;;;;;;4944223;28;20047;-22
2022/07/27 07:26:08;;;;;;;0.55;0.30;;;20.80;59.10;;;;;;4941634;28;20047;-21
2022/07/27 07:28:35;;;;;;;0.40;0.40;;;20.90;59.70;;;;;;4941812;28;20071;-20
2022/07/27 07:31:00;;;;;;;0.65;0.28;;;20.90;59.10;;;;;;4940430;28;20046;-19
2022/07/27 07:33:26;;;;;;;0.35;0.30;;;20.90;59.10;;;;;;4938758;28;20044;-19
2022/07/27 07:35:52;;;;;;;0.25;0.25;;;20.90;59.10;;;;;;4938881;28;20062;-22
2022/07/27 07:38:18;;;;;;;0.35;0.35;;;20.90;59.10;;;;;;4943845;28;20134;-20
2022/07/27 07:40:43;;;;;;;0.25;0.20;;;20.90;59.20;;;;;;4943008;28;20592;-20
2022/07/27 07:43:10;;;;;;;1.08;0.40;;;21.00;59.30;;;;;;4943775;28;20090;-20
2022/07/27 07:45:38;;;;;;;0.35;0.30;;;20.90;59.20;;;;;;4944381;28;20043;-20
2022/07/27 07:48:04;;;;;;;0.88;0.47;;;21.00;59.30;;;;;;4936627;28;20031;-20
2022/07/27 07:50:30;;;;;;;0.63;0.30;;;21.00;59.20;;;;;;4943429;28;20043;-19
2022/07/27 07:52:56;;;;;;;0.40;0.30;;;21.10;59.10;;;;;;4942821;28;20429;-19
2022/07/27 07:55:23;;;;;;;0.95;0.63;;;21.10;59.10;;;;;;4942330;28;20514;-20
2022/07/27 07:57:48;;;;;;;1.25;0.35;;;21.10;59.00;;;;;;4944226;28;21002;-19
2022/07/27 08:00:14;;;;;;;0.38;0.30;;;21.10;59.00;;;;;;4943453;28;20044;-21
2022/07/27 08:02:43;;;;;;;0.75;0.20;;;21.10;58.90;;;;;;4944050;28;20047;-20
2022/07/27 08:05:09;;;;;;;0.13;0.10;;;21.20;58.80;;;;;;4940357;28;20043;-20
2022/07/27 08:07:35;;;;;;;0.30;0.20;;;21.20;58.80;;;;;;4944288;28;20097;-19
2022/07/27 08:10:00;;;;;;;0.20;0.20;;;21.20;58.70;;;;;;4943752;28;20055;-20
2022/07/27 08:12:26;;;;;;;0.20;0.10;;;21.20;58.70;;;;;;4941520;28;20564;-22
2022/07/27 08:14:52;;;;;;;0.38;0.35;;;21.20;58.70;;;;;;4940519;28;20043;-19
2022/07/27 08:17:17;;;;;;;0.20;0.20;;;21.30;58.70;;;;;;4940311;28;20039;-22
2022/07/27 08:19:43;;;;;;;0.55;0.30;;;21.30;58.70;;;;;;4940799;28;20051;-19
2022/07/27 08:22:08;;;;;;;0.20;0.20;;;21.30;58.70;;;;;;4938705;28;20127;-19
2022/07/27 08:24:34;;;;;;;0.60;0.57;;;21.30;58.60;;;;;;4948699;28;20422;-19
2022/07/27 08:27:00;;;;;;;0.25;0.20;;;21.40;58.60;;;;;;4940038;28;20047;-23
2022/07/27 08:29:25;;;;;;;0.77;0.30;;;21.40;58.70;;;;;;4939720;28;20102;-20
2022/07/27 08:31:51;;;;;;;0.40;0.40;;;21.40;58.50;;;;;;4941884;28;20066;-20
2022/07/27 08:34:17;;;;;;;0.50;0.30;;;21.40;58.60;;;;;;4942504;28;20086;-19
2022/07/27 08:36:42;;;;;;;0.43;0.20;;;21.40;58.50;;;;;;4939770;28;20057;-22
2022/07/27 08:39:08;;;;;;;1.08;0.30;;;21.40;58.50;;;;;;4943179;28;20044;-27
2022/07/27 08:41:33;;;;;;;0.30;0.30;;;21.40;58.60;;;;;;4937820;28;20051;-20
2022/07/27 08:43:59;;;;;;;0.30;0.30;;;21.40;58.60;;;;;;4996707;28;20449;-19
2022/07/27 08:46:25;;;;;;;0.35;0.35;;;21.50;58.50;;;;;;4954808;28;20139;-19
2022/07/27 08:48:50;;;;;;;0.30;0.20;;;21.40;58.60;;;;;;4937591;28;20136;-19
2022/07/27 08:51:16;;;;;;;0.20;0.20;;;21.40;58.60;;;;;;4939444;28;20221;-20
2022/07/27 08:53:41;;;;;;;0.20;0.20;;;21.50;58.60;;;;;;4929247;28;20499;-20
2022/07/27 08:56:07;;;;;;;1.23;0.40;;;21.50;58.60;;;;;;4938953;28;20070;-19
2022/07/27 08:58:33;;;;;;;0.43;0.20;;;21.50;58.50;;;;;;4944975;28;20510;-20
2022/07/27 09:00:58;;;;;;;0.28;0.20;;;21.50;58.60;;;;;;4938704;28;20027;-20
2022/07/27 09:03:24;;;;;;;0.20;0.20;;;21.50;58.70;;;;;;4937046;28;20415;-20
2022/07/27 09:05:54;;;;;;;0.20;0.20;;;21.50;58.70;;;;;;4944574;28;20042;-19
2022/07/27 09:08:22;;;;;;;0.15;0.15;;;21.50;58.60;;;;;;4935773;28;20133;-20
2022/07/27 09:10:48;;;;;;;0.15;0.15;;;21.60;58.60;;;;;;4938506;28;20063;-19
2022/07/27 09:13:23;;;;;;;0.15;0.15;;;21.60;58.60;;;;;;4940738;28;20419;-20
2022/07/27 09:15:56;;;;;;;0.52;0.38;;;21.60;58.70;;;;;;4944281;28;20540;-20
2022/07/27 09:18:24;;;;;;;0.20;0.15;;;21.70;58.70;;;;;;4936084;28;20410;-20
2022/07/27 09:21:13;;;;;;;0.20;0.20;;;21.60;58.70;;;;;;4945558;28;20118;-19
2022/07/27 09:23:45;;;;;;;0.15;0.10;;;21.70;58.70;;;;;;4949336;28;20123;-19
2022/07/27 09:26:15;;;;;;;0.20;0.20;;;21.70;59.30;;;;;;4943500;28;20497;-19
2022/07/27 09:28:41;;;;;;;0.13;0.13;;;21.80;58.70;;;;;;4936063;28;20059;-21
2022/07/27 09:31:11;;;;;;;0.20;0.20;;;21.70;58.70;;;;;;4938381;28;21249;-20
2022/07/27 09:33:49;;;;;;;0.20;0.20;;;21.80;58.70;;;;;;4942777;28;20051;-19
2022/07/27 09:36:16;;;;;;;0.20;0.20;;;21.70;58.70;;;;;;4942809;28;20043;-22
2022/07/27 09:38:55;;;;;;;0.20;0.20;;;21.70;58.70;;;;;;4940658;28;20052;-20
2022/07/27 09:41:21;;;;;;;0.20;0.20;;;21.70;58.60;;;;;;4938411;28;20126;-27
2022/07/27 09:43:54;;;;;;;0.55;0.20;;;21.80;58.70;;;;;;4939026;28;20083;-20
2022/07/27 09:46:31;;;;;;;0.23;0.20;;;21.80;59.40;;;;;;4940042;28;20039;-20
2022/07/27 09:48:56;;;;;;;0.20;0.13;;;21.80;58.80;;;;;;4939087;28;20047;-20
2022/07/27 09:51:24;;;;;;;0.20;0.20;;;21.80;58.70;;;;;;4934861;28;20514;-20
2022/07/27 09:53:50;;;;;;;0.17;0.17;;;21.80;58.80;;;;;;4942934;28;20031;-20
2022/07/27 09:56:16;;;;;;;0.17;0.13;;;21.80;58.70;;;;;;4937437;28;20094;-20
2022/07/27 09:58:55;;;;;;;0.30;0.20;;;21.90;58.80;;;;;;4935815;28;20074;-22
2022/07/27 10:01:25;;;;;;;0.30;0.30;;;21.80;58.80;;;;;;4937000;28;20051;-20
2022/07/27 10:03:54;;;;;;;0.20;0.20;;;21.80;58.70;;;;;;4941261;28;20051;-20
2022/07/27 10:06:21;;;;;;;0.20;0.17;;;21.90;58.90;;;;;;4940937;28;20126;-20
2022/07/27 10:08:48;;;;;;;0.20;0.20;;;21.90;58.80;;;;;;4943736;28;20052;-21
2022/07/27 10:11:14;;;;;;;0.20;0.20;;;21.90;58.80;;;;;;4944524;28;20363;-20
2022/07/27 10:13:40;;;;;;;0.20;0.10;;;21.90;58.80;;;;;;4937033;28;20035;-20
2022/07/27 10:16:06;;;;;;;0.35;0.30;;;21.90;58.80;;;;;;4938125;28;20109;-22
2022/07/27 10:18:59;;;;;;;0.20;0.20;;;21.90;59.50;;;;;;4933955;28;20051;-21
2022/07/27 10:21:25;;;;;;;0.10;0.10;;;21.90;58.80;;;;;;4946682;28;20039;-20
2022/07/27 10:23:59;;;;;;;0.93;0.65;;;21.90;58.80;;;;;;5021727;28;20422;-20
2022/07/27 10:26:24;;;;;;;0.20;0.20;;;22.00;58.80;;;;;;4932386;28;20039;-21
2022/07/27 10:29:01;;;;;;;0.20;0.20;;;22.00;58.80;;;;;;4936493;28;20422;-20
2022/07/27 10:31:35;;;;;;;0.20;0.20;;;22.00;58.90;;;;;;4935073;28;20055;-21
2022/07/27 10:34:02;;;;;;;0.20;0.20;;;22.00;58.80;;;;;;4935375;28;20040;-20
2022/07/27 10:36:28;;;;;;;0.32;0.20;;;22.00;58.70;;;;;;4939141;28;20193;-21
2022/07/27 10:38:55;;;;;;;0.20;0.20;;;22.00;58.70;;;;;;4938446;28;20118;-20
2022/07/27 10:41:24;;;;;;;0.10;0.10;;;22.10;58.80;;;;;;4942652;28;20063;-20
2022/07/27 10:44:10;;;;;;;0.10;0.10;;;22.10;58.80;;;;;;4945252;28;20058;-20
2022/07/27 10:46:37;;;;;;;0.22;0.20;;;22.00;58.80;;;;;;4964042;28;20469;-21
2022/07/27 10:49:22;;;;;;;0.15;0.13;;;22.10;58.60;;;;;;4935523;28;20040;-21
2022/07/27 10:51:48;;;;;;;0.10;0.10;;;22.00;58.60;;;;;;4938849;28;20046;-20
2022/07/27 10:54:26;;;;;;;0.13;0.10;;;22.00;58.60;;;;;;4938578;28;20089;-20
2022/07/27 10:56:56;;;;;;;0.10;0.10;;;22.00;58.70;;;;;;4938679;28;20077;-20
2022/07/27 10:59:42;;;;;;;0.13;0.10;;;22.00;58.70;;;;;;4934723;28;20043;-20
2022/07/27 11:02:11;;;;;;;0.20;0.20;;;22.00;58.70;;;;;;4941251;28;20081;-20
2022/07/27 11:04:47;;;;;;;0.50;0.40;;;22.00;58.70;;;;;;4939360;29;20058;-20
2022/07/27 11:07:15;;;;;;;0.35;0.35;;;22.00;58.70;;;;;;4942119;28;20057;-20
2022/07/27 11:09:41;;;;;;;0.20;0.20;;;22.00;58.70;;;;;;4935911;28;20593;-19
2022/07/27 11:12:10;;;;;;;0.10;0.05;;;22.00;58.70;;;;;;4933707;28;20046;-19
2022/07/27 11:14:49;;;;;;;0.20;0.20;;;22.00;58.70;;;;;;5035608;28;20052;-20
2022/07/27 11:17:22;;;;;;;0.20;0.20;;;22.00;58.70;;;;;;5031482;28;20049;-21
2022/07/27 11:19:58;;;;;;;0.13;0.13;;;22.10;58.60;;;;;;4932378;29;20052;-20
2022/07/27 11:22:34;;;;;;;0.20;0.20;;;22.10;58.70;;;;;;5029155;28;20044;-20
2022/07/27 11:25:00;;;;;;;0.20;0.10;;;22.10;58.60;;;;;;4965030;28;20028;-20
2022/07/27 11:27:26;;;;;;;0.10;0.10;;;22.10;58.60;;;;;;5031397;28;20041;-20
2022/07/27 11:29:52;;;;;;;0.22;0.22;;;22.10;58.60;;;;;;4996031;28;20045;-19
2022/07/27 11:32:18;;;;;;;0.28;0.20;;;22.10;58.60;;;;;;4978382;28;20120;-20
2022/07/27 11:34:44;;;;;;;0.20;0.20;;;22.10;58.60;;;;;;5042201;28;20040;-29
2022/07/27 11:37:17;;;;;;;0.25;0.13;;;22.10;58.60;;;;;;4962995;28;20755;-20
2022/07/27 11:39:43;;;;;;;0.17;0.17;;;22.10;58.60;;;;;;5039939;28;20089;-20
2022/07/27 11:42:10;;;;;;;0.20;0.20;;;22.10;58.50;;;;;;5042729;28;20122;-20
2022/07/27 11:44:36;;;;;;;0.32;0.20;;;22.20;58.70;;;;;;5036723;28;20060;-21
2022/07/27 11:47:02;;;;;;;0.20;0.10;;;22.20;58.50;;;;;;5041688;28;20054;-20
2022/07/27 11:49:29;;;;;;;0.90;0.20;;;22.20;58.60;;;;;;5008351;28;20059;-20
2022/07/27 11:51:56;;;;;;;0.25;0.25;;;22.20;58.40;;;;;;4998562;28;20045;-20
2022/07/27 11:54:23;;;;;;;0.20;0.20;;;22.20;58.60;;;;;;4685910;28;9999761;-20
2022/07/27 11:56:54;;;;;;;0.20;0.17;;;22.20;58.70;;;;;;5037623;28;20279;-20
2022/07/27 11:59:20;;;;;;;0.57;0.22;;;22.20;58.60;;;;;;5035104;28;20057;-20
2022/07/27 12:01:49;;;;;;;0.38;0.20;;;22.20;58.80;;;;;;5034385;28;20459;-20
2022/07/27 12:04:22;;;;;;;0.60;0.38;;;22.20;58.80;;;;;;5035423;28;20435;-21
2022/07/27 12:07:00;;;;;;;0.15;0.15;;;22.20;59.00;;;;;;4979053;28;20450;-20
2022/07/27 12:09:26;;;;;;;0.85;0.15;;;22.20;58.90;;;;;;5025092;28;21320;-20
2022/07/27 12:11:59;;;;;;;0.70;0.30;;;22.20;58.80;;;;;;5026027;28;20091;-20
2022/07/27 12:14:37;;;;;;;0.30;0.30;;;22.20;58.70;;;;;;4988741;28;20048;-20
2022/07/27 12:17:30;;;;;;;0.28;0.28;;;22.20;59.50;;;;;;4941845;28;20071;-22
2022/07/27 12:19:59;;;;;;;0.28;0.20;;;22.30;59.00;;;;;;5037096;28;20115;-19
2022/07/27 12:22:30;;;;;;;1.55;0.17;;;22.30;59.00;;;;;;5040279;28;20037;-20
2022/07/27 12:24:56;;;;;;;0.25;0.25;;;22.20;58.90;;;;;;5040660;28;20045;-20
2022/07/27 12:27:22;;;;;;;0.20;0.20;;;22.30;59.00;;;;;;5002768;28;20118;-20
2022/07/27 12:30:15;;;;;;;0.45;0.10;;;22.30;59.00;;;;;;5015662;28;20039;-20
2022/07/27 12:32:44;;;;;;;0.40;0.40;;;22.30;59.00;;;;;;4933096;28;20409;-20
2022/07/27 12:35:19;;;;;;;0.52;0.50;;;22.30;59.00;;;;;;4976577;28;20419;-19
2022/07/27 12:37:45;;;;;;;0.20;0.20;;;22.30;59.00;;;;;;5019961;28;20051;-19
2022/07/27 12:40:16;;;;;;;0.20;0.20;;;22.30;59.00;;;;;;5024126;28;20048;-20
2022/07/27 12:42:42;;;;;;;0.20;0.20;;;22.30;59.10;;;;;;5042048;28;20048;-20
2022/07/27 12:45:16;;;;;;;0.52;0.30;;;22.30;59.00;;;;;;5039482;28;20045;-20
2022/07/27 12:47:41;;;;;;;0.35;0.35;;;22.30;59.00;;;;;;4999965;28;20037;-20